Terminal Aerodrome Forecast
Issued by NWS

Home | Current Version | Previous Version | Text Only | Print | Product List | Glossary On
Versions: 1 2 3 4 5 6 7 8 9 10 11 12 13 14 15
000
FTUS45 KRIW 182300
TAFLND
TAF
KLND 182328Z 1900/1924 01008G15KT P6SM VCSH SCT030 OVC050
     FM190800 34007KT P6SM VCSH OVC030
     FM191500 VRB06KT P6SM FEW030 SCT050
     FM192200 02005KT P6SM VCSH FEW030 BKN060=

USA.gov is the U.S. government's official web portal to all federal, state and local government web resources and services.